Aeroporto :
LOGIN :

Iscrizione | Disclaimer

   EN    FR    IT 

 










Sommario :    VFR   VFR Marginale   IFR   IFR Intensivo   IFR Molto Intensivo
Visibilità : 
Base nubi : 
>= 8 km
>= 3000ft
5 / 8 km
1000 / 3000 ft
1500m / 5 km
500 / 1000 ft
800 / 1500m
200 / 500 ft
< 800m
< 200 ft
Simboli :   Temporali  Nebbia  Neve Forte  Precipitazioni Forti  Vento > 20 kt
SIGMETs :   Varie  Temporali  Ghiacco  Turbolenza  Onda orograficha  Ceneri Vulcaniche






- Altitudine del aeroporto : 614 ft
- Codice IATA : CRL


EBCI - Charleroi

ULTIMO METAR :
  • 170720Z 20004KT 4000 BR NSC 14/12 Q1017 BECMG 6000 NSW

METARs OBSOLETI :
  • 170650Z 20003KT 170V230 4000 BR NSC 14/13 Q1017 TEMPO 2500 BR
  • 170620Z 18002KT 4000 BR NSC 13/12 Q1017 TEMPO 2500 BR
  • 170550Z VRB01KT 4000 BR NSC 12/11 Q1017 TEMPO 2500 BR
  • 170520Z 20003KT 4600 BR NSC 12/11 Q1017 TEMPO 2500 BR
  • 170450Z 20003KT 160V230 4600 BR NSC 12/11 Q1017 TEMPO 2900 BR

TAF TAF EBCI
Valido dal 17 a 06 ore il 18 a 12 ore UTC


170510Z 1706/1812 20003KT 9000 FEW045
TEMPO 1706/1708 4000 BR MIFG
PROB40
TEMPO 1706/1708 0800 BCFG BKN001
PROB30 1802/1807 4000 BR



MetMap, La meteo Aeronautica in un colpo d'occhio ! - Copyright ORBIFLY Dicembre 2007 - Disclaimer

ORBIFLY MET'MAP TEAM :

Programmazione e sviluppo : Alexandra Zaïnal
Concezione : Baudouin d'Aumeries
Aiuto per la programmazione : Marc-Olivier Méhu
Supporto tecnico e logistico : Manuel Goepfert
Aiuto per la traduzione : Arnaldo La Scala

Contatto : metmap@orbifly.com




FONTI E CREDITI :

   NOAA